sensor_id;sensor_type;location;lat;lon;timestamp;pressure;altitude;pressure_sealevel;temperature
34125;BMP280;20110;53.120;5.786;2022-11-25T00:01:24;100872.25;;;14.04
34125;BMP280;20110;53.120;5.786;2022-11-25T00:03:54;100872.94;;;14.12
34125;BMP280;20110;53.120;5.786;2022-11-25T00:06:22;100862.09;;;14.10
34125;BMP280;20110;53.120;5.786;2022-11-25T00:08:53;100854.41;;;13.99
34125;BMP280;20110;53.120;5.786;2022-11-25T00:11:19;100873.88;;;14.14
34125;BMP280;20110;53.120;5.786;2022-11-25T00:13:46;100869.03;;;14.13
34125;BMP280;20110;53.120;5.786;2022-11-25T00:16:15;100871.38;;;14.16
34125;BMP280;20110;53.120;5.786;2022-11-25T00:18:47;100835.59;;;14.04
34125;BMP280;20110;53.120;5.786;2022-11-25T00:21:18;100869.41;;;14.24
34125;BMP280;20110;53.120;5.786;2022-11-25T00:23:50;100862.66;;;14.31
34125;BMP280;20110;53.120;5.786;2022-11-25T00:26:16;100861.94;;;14.38
34125;BMP280;20110;53.120;5.786;2022-11-25T00:28:45;100863.72;;;14.43
34125;BMP280;20110;53.120;5.786;2022-11-25T00:31:14;100845.72;;;14.44
34125;BMP280;20110;53.120;5.786;2022-11-25T00:33:41;100835.78;;;14.37
34125;BMP280;20110;53.120;5.786;2022-11-25T00:36:25;100855.34;;;14.54
34125;BMP280;20110;53.120;5.786;2022-11-25T00:38:58;100843.59;;;14.50
34125;BMP280;20110;53.120;5.786;2022-11-25T00:41:25;100852.31;;;14.65
34125;BMP280;20110;53.120;5.786;2022-11-25T00:44:12;100847.69;;;14.74
34125;BMP280;20110;53.120;5.786;2022-11-25T00:46:57;100866.41;;;14.74
34125;BMP280;20110;53.120;5.786;2022-11-25T00:49:23;100844.31;;;14.50
34125;BMP280;20110;53.120;5.786;2022-11-25T00:51:50;100864.25;;;14.64
34125;BMP280;20110;53.120;5.786;2022-11-25T00:54:16;100826.34;;;14.51
34125;BMP280;20110;53.120;5.786;2022-11-25T00:56:42;100866.41;;;14.74
34125;BMP280;20110;53.120;5.786;2022-11-25T00:59:08;100868.34;;;14.81
34125;BMP280;20110;53.120;5.786;2022-11-25T01:01:34;100830.94;;;14.73
34125;BMP280;20110;53.120;5.786;2022-11-25T01:04:01;100840.34;;;14.89
34125;BMP280;20110;53.120;5.786;2022-11-25T01:06:26;100841.28;;;14.84
34125;BMP280;20110;53.120;5.786;2022-11-25T01:08:53;100843.59;;;14.73
34125;BMP280;20110;53.120;5.786;2022-11-25T01:11:21;100829.91;;;14.53
34125;BMP280;20110;53.120;5.786;2022-11-25T01:13:48;100851.63;;;14.73
34125;BMP280;20110;53.120;5.786;2022-11-25T01:16:19;100851.81;;;14.52
34125;BMP280;20110;53.120;5.786;2022-11-25T01:18:46;100846.63;;;14.46
34125;BMP280;20110;53.120;5.786;2022-11-25T01:21:14;100865.00;;;14.50
34125;BMP280;20110;53.120;5.786;2022-11-25T01:23:42;100853.56;;;14.34
34125;BMP280;20110;53.120;5.786;2022-11-25T01:26:12;100852.69;;;14.39
34125;BMP280;20110;53.120;5.786;2022-11-25T01:28:39;100840.97;;;14.27
34125;BMP280;20110;53.120;5.786;2022-11-25T01:31:08;100859.28;;;14.38
34125;BMP280;20110;53.120;5.786;2022-11-25T01:33:35;100838.78;;;14.18
34125;BMP280;20110;53.120;5.786;2022-11-25T01:36:03;100857.13;;;14.29
34125;BMP280;20110;53.120;5.786;2022-11-25T01:38:31;100864.47;;;14.36
34125;BMP280;20110;53.120;5.786;2022-11-25T01:40:58;100865.69;;;14.35
34125;BMP280;20110;53.120;5.786;2022-11-25T01:43:25;100858.56;;;14.30
34125;BMP280;20110;53.120;5.786;2022-11-25T01:45:52;100838.59;;;14.23
34125;BMP280;20110;53.120;5.786;2022-11-25T01:48:28;100839.69;;;14.20
34125;BMP280;20110;53.120;5.786;2022-11-25T01:50:57;100853.94;;;14.38
34125;BMP280;20110;53.120;5.786;2022-11-25T01:53:24;100851.44;;;14.40
34125;BMP280;20110;53.120;5.786;2022-11-25T01:56:01;100839.88;;;14.30
34125;BMP280;20110;53.120;5.786;2022-11-25T01:58:33;100833.28;;;14.39
34125;BMP280;20110;53.120;5.786;2022-11-25T02:00:59;100825.44;;;14.33
34125;BMP280;20110;53.120;5.786;2022-11-25T02:03:36;100802.28;;;14.20
34125;BMP280;20110;53.120;5.786;2022-11-25T02:06:23;100768.25;;;13.90
34125;BMP280;20110;53.120;5.786;2022-11-25T02:08:54;100826.69;;;14.24
34125;BMP280;20110;53.120;5.786;2022-11-25T02:11:26;100794.44;;;14.00
34125;BMP280;20110;53.120;5.786;2022-11-25T02:13:53;100831.16;;;14.22
34125;BMP280;20110;53.120;5.786;2022-11-25T02:16:19;100821.34;;;14.09
34125;BMP280;20110;53.120;5.786;2022-11-25T02:18:45;100826.31;;;14.13
34125;BMP280;20110;53.120;5.786;2022-11-25T02:21:17;100840.56;;;14.23
34125;BMP280;20110;53.120;5.786;2022-11-25T02:23:52;100845.75;;;14.28
34125;BMP280;20110;53.120;5.786;2022-11-25T02:26:20;100836.16;;;14.25
34125;BMP280;20110;53.120;5.786;2022-11-25T02:28:46;100832.38;;;14.21
34125;BMP280;20110;53.120;5.786;2022-11-25T02:31:22;100842.34;;;14.28
34125;BMP280;20110;53.120;5.786;2022-11-25T02:33:48;100830.97;;;14.27
34125;BMP280;20110;53.120;5.786;2022-11-25T02:36:19;100850.91;;;14.34
34125;BMP280;20110;53.120;5.786;2022-11-25T02:38:49;100848.59;;;14.38
34125;BMP280;20110;53.120;5.786;2022-11-25T02:41:27;100825.81;;;14.29
34125;BMP280;20110;53.120;5.786;2022-11-25T02:43:55;100853.03;;;14.43
34125;BMP280;20110;53.120;5.786;2022-11-25T02:46:24;100846.25;;;14.35
34125;BMP280;20110;53.120;5.786;2022-11-25T02:48:52;100802.31;;;14.05
34125;BMP280;20110;53.120;5.786;2022-11-25T02:51:22;100838.81;;;14.25
34125;BMP280;20110;53.120;5.786;2022-11-25T02:53:49;100825.25;;;14.23
34125;BMP280;20110;53.120;5.786;2022-11-25T02:56:19;100819.38;;;14.17
34125;BMP280;20110;53.120;5.786;2022-11-25T02:58:45;100816.56;;;14.15
34125;BMP280;20110;53.120;5.786;2022-11-25T03:01:11;100799.97;;;14.09
34125;BMP280;20110;53.120;5.786;2022-11-25T03:03:37;100844.53;;;14.37
34125;BMP280;20110;53.120;5.786;2022-11-25T03:06:03;100844.69;;;14.39
34125;BMP280;20110;53.120;5.786;2022-11-25T03:08:29;100817.44;;;14.25
34125;BMP280;20110;53.120;5.786;2022-11-25T03:10:55;100837.53;;;14.34
34125;BMP280;20110;53.120;5.786;2022-11-25T03:13:21;100819.06;;;14.36
34125;BMP280;20110;53.120;5.786;2022-11-25T03:15:47;100845.56;;;14.49
34125;BMP280;20110;53.120;5.786;2022-11-25T03:18:13;100819.91;;;14.39
34125;BMP280;20110;53.120;5.786;2022-11-25T03:20:39;100838.59;;;14.54
34125;BMP280;20110;53.120;5.786;2022-11-25T03:23:05;100842.00;;;14.62
34125;BMP280;20110;53.120;5.786;2022-11-25T03:25:33;100849.69;;;14.58
34125;BMP280;20110;53.120;5.786;2022-11-25T03:27:59;100852.53;;;14.52
34125;BMP280;20110;53.120;5.786;2022-11-25T03:30:28;100853.44;;;14.47
34125;BMP280;20110;53.120;5.786;2022-11-25T03:32:55;100870.50;;;14.59
34125;BMP280;20110;53.120;5.786;2022-11-25T03:35:21;100873.34;;;14.54
34125;BMP280;20110;53.120;5.786;2022-11-25T03:37:48;100854.84;;;14.48
34125;BMP280;20110;53.120;5.786;2022-11-25T03:40:15;100864.63;;;14.61
34125;BMP280;20110;53.120;5.786;2022-11-25T03:42:41;100861.44;;;14.62
34125;BMP280;20110;53.120;5.786;2022-11-25T03:45:10;100862.84;;;14.63
34125;BMP280;20110;53.120;5.786;2022-11-25T03:47:38;100860.34;;;14.65
34125;BMP280;20110;53.120;5.786;2022-11-25T03:50:05;100872.81;;;14.55
34125;BMP280;20110;53.120;5.786;2022-11-25T03:52:31;100887.63;;;14.64
34125;BMP280;20110;53.120;5.786;2022-11-25T03:54:57;100895.25;;;14.75
34125;BMP280;20110;53.120;5.786;2022-11-25T03:57:23;100869.06;;;14.66
34125;BMP280;20110;53.120;5.786;2022-11-25T03:59:49;100900.09;;;14.84
34125;BMP280;20110;53.120;5.786;2022-11-25T04:02:14;100887.06;;;14.88
34125;BMP280;20110;53.120;5.786;2022-11-25T04:04:40;100879.41;;;14.77
34125;BMP280;20110;53.120;5.786;2022-11-25T04:07:06;100896.16;;;14.78
34125;BMP280;20110;53.120;5.786;2022-11-25T04:09:32;100889.03;;;14.65
34125;BMP280;20110;53.120;5.786;2022-11-25T04:11:58;100911.13;;;14.73
34125;BMP280;20110;53.120;5.786;2022-11-25T04:14:42;100854.50;;;14.37
34125;BMP280;20110;53.120;5.786;2022-11-25T04:17:08;100856.41;;;14.44
34125;BMP280;20110;53.120;5.786;2022-11-25T04:19:34;100879.78;;;14.51
34125;BMP280;20110;53.120;5.786;2022-11-25T04:21:59;100888.69;;;14.53
34125;BMP280;20110;53.120;5.786;2022-11-25T04:24:26;100885.47;;;14.62
34125;BMP280;20110;53.120;5.786;2022-11-25T04:26:52;100882.28;;;14.64
34125;BMP280;20110;53.120;5.786;2022-11-25T04:29:18;100886.19;;;14.63
34125;BMP280;20110;53.120;5.786;2022-11-25T04:31:44;100887.25;;;14.60
34125;BMP280;20110;53.120;5.786;2022-11-25T04:34:09;100859.13;;;14.36
34125;BMP280;20110;53.120;5.786;2022-11-25T04:36:35;100876.00;;;14.54
34125;BMP280;20110;53.120;5.786;2022-11-25T04:39:01;100897.59;;;14.71
34125;BMP280;20110;53.120;5.786;2022-11-25T04:41:27;100874.63;;;14.53
34125;BMP280;20110;53.120;5.786;2022-11-25T04:43:53;100906.13;;;14.70
34125;BMP280;20110;53.120;5.786;2022-11-25T04:46:23;100889.78;;;14.58
34125;BMP280;20110;53.120;5.786;2022-11-25T04:48:52;100892.59;;;14.67
34125;BMP280;20110;53.120;5.786;2022-11-25T04:51:17;100905.63;;;14.63
34125;BMP280;20110;53.120;5.786;2022-11-25T04:53:43;100888.66;;;14.38
34125;BMP280;20110;53.120;5.786;2022-11-25T04:56:16;100914.84;;;14.55
34125;BMP280;20110;53.120;5.786;2022-11-25T04:58:42;100904.34;;;14.42
34125;BMP280;20110;53.120;5.786;2022-11-25T05:01:27;100918.97;;;14.48
34125;BMP280;20110;53.120;5.786;2022-11-25T05:03:52;100924.66;;;14.52
34125;BMP280;20110;53.120;5.786;2022-11-25T05:06:18;100923.59;;;14.55
34125;BMP280;20110;53.120;5.786;2022-11-25T05:08:47;100918.63;;;14.52
34125;BMP280;20110;53.120;5.786;2022-11-25T05:11:14;100882.25;;;14.26
34125;BMP280;20110;53.120;5.786;2022-11-25T05:13:40;100913.25;;;14.37
34125;BMP280;20110;53.120;5.786;2022-11-25T05:16:06;100928.41;;;14.49
34125;BMP280;20110;53.120;5.786;2022-11-25T05:18:32;100951.41;;;14.60
34125;BMP280;20110;53.120;5.786;2022-11-25T05:21:03;100949.25;;;14.66
34125;BMP280;20110;53.120;5.786;2022-11-25T05:23:30;100946.03;;;14.67
34125;BMP280;20110;53.120;5.786;2022-11-25T05:26:03;100951.75;;;14.72
34125;BMP280;20110;53.120;5.786;2022-11-25T05:28:29;100965.31;;;14.81
34125;BMP280;20110;53.120;5.786;2022-11-25T05:30:55;100963.34;;;14.82
34125;BMP280;20110;53.120;5.786;2022-11-25T05:33:22;100927.19;;;14.58
34125;BMP280;20110;53.120;5.786;2022-11-25T05:36:00;100967.63;;;14.77
34125;BMP280;20110;53.120;5.786;2022-11-25T05:38:27;100973.84;;;14.80
34125;BMP280;20110;53.120;5.786;2022-11-25T05:41:00;100966.03;;;14.74
34125;BMP280;20110;53.120;5.786;2022-11-25T05:43:26;100946.03;;;14.75
34125;BMP280;20110;53.120;5.786;2022-11-25T05:45:52;100972.59;;;14.96
34125;BMP280;20110;53.120;5.786;2022-11-25T05:48:17;100976.53;;;15.02
34125;BMP280;20110;53.120;5.786;2022-11-25T05:50:43;100984.38;;;15.08
34125;BMP280;20110;53.120;5.786;2022-11-25T05:53:09;100966.72;;;14.97
34125;BMP280;20110;53.120;5.786;2022-11-25T05:55:36;100959.94;;;14.96
34125;BMP280;20110;53.120;5.786;2022-11-25T05:58:02;100969.22;;;14.95
34125;BMP280;20110;53.120;5.786;2022-11-25T06:00:29;100977.06;;;15.01
34125;BMP280;20110;53.120;5.786;2022-11-25T06:02:55;100990.81;;;15.13
34125;BMP280;20110;53.120;5.786;2022-11-25T06:05:21;100952.28;;;14.85
34125;BMP280;20110;53.120;5.786;2022-11-25T06:07:47;100982.78;;;15.13
34125;BMP280;20110;53.120;5.786;2022-11-25T06:10:12;100990.44;;;15.16
34125;BMP280;20110;53.120;5.786;2022-11-25T06:12:38;101002.91;;;15.21
34125;BMP280;20110;53.120;5.786;2022-11-25T06:15:05;101002.75;;;15.19
34125;BMP280;20110;53.120;5.786;2022-11-25T06:17:31;100998.25;;;15.22
34125;BMP280;20110;53.120;5.786;2022-11-25T06:19:57;100997.75;;;15.08
34125;BMP280;20110;53.120;5.786;2022-11-25T06:22:22;101003.81;;;15.09
34125;BMP280;20110;53.120;5.786;2022-11-25T06:24:48;101004.16;;;14.97
34125;BMP280;20110;53.120;5.786;2022-11-25T06:27:14;101018.25;;;14.98
34125;BMP280;20110;53.120;5.786;2022-11-25T06:29:39;101023.97;;;14.94
34125;BMP280;20110;53.120;5.786;2022-11-25T06:32:05;101002.53;;;14.72
34125;BMP280;20110;53.120;5.786;2022-11-25T06:34:31;101012.88;;;14.67
34125;BMP280;20110;53.120;5.786;2022-11-25T06:36:57;101029.63;;;14.68
34125;BMP280;20110;53.120;5.786;2022-11-25T06:39:23;101034.06;;;14.65
34125;BMP280;20110;53.120;5.786;2022-11-25T06:41:48;101009.81;;;14.56
34125;BMP280;20110;53.120;5.786;2022-11-25T06:44:14;101030.50;;;14.63
34125;BMP280;20110;53.120;5.786;2022-11-25T06:46:40;101041.19;;;14.63
34125;BMP280;20110;53.120;5.786;2022-11-25T06:49:06;101030.84;;;14.59
34125;BMP280;20110;53.120;5.786;2022-11-25T06:51:32;101010.88;;;14.38
34125;BMP280;20110;53.120;5.786;2022-11-25T06:53:57;101016.72;;;14.36
34125;BMP280;20110;53.120;5.786;2022-11-25T06:56:26;101021.84;;;14.34
34125;BMP280;20110;53.120;5.786;2022-11-25T06:58:54;101039.53;;;14.37
34125;BMP280;20110;53.120;5.786;2022-11-25T07:01:26;101048.03;;;14.28
34125;BMP280;20110;53.120;5.786;2022-11-25T07:03:58;101040.31;;;14.17
34125;BMP280;20110;53.120;5.786;2022-11-25T07:06:25;101035.31;;;14.06
34125;BMP280;20110;53.120;5.786;2022-11-25T07:08:51;101056.00;;;14.20
34125;BMP280;20110;53.120;5.786;2022-11-25T07:11:27;101035.84;;;14.04
34125;BMP280;20110;53.120;5.786;2022-11-25T07:14:00;101062.72;;;14.14
34125;BMP280;20110;53.120;5.786;2022-11-25T07:16:27;101071.63;;;14.09
34125;BMP280;20110;53.120;5.786;2022-11-25T07:18:53;101072.50;;;14.04
34125;BMP280;20110;53.120;5.786;2022-11-25T07:21:23;101078.16;;;14.00
34125;BMP280;20110;53.120;5.786;2022-11-25T07:23:51;101085.84;;;14.04
34125;BMP280;20110;53.120;5.786;2022-11-25T07:26:27;101061.53;;;13.86
34125;BMP280;20110;53.120;5.786;2022-11-25T07:28:57;101063.84;;;13.90
34125;BMP280;20110;53.120;5.786;2022-11-25T07:31:27;101074.78;;;14.00
34125;BMP280;20110;53.120;5.786;2022-11-25T07:33:57;101091.91;;;14.04
34125;BMP280;20110;53.120;5.786;2022-11-25T07:36:24;101092.91;;;14.01
34125;BMP280;20110;53.120;5.786;2022-11-25T07:38:51;101078.78;;;13.85
34125;BMP280;20110;53.120;5.786;2022-11-25T07:41:21;101069.16;;;13.82
34125;BMP280;20110;53.120;5.786;2022-11-25T07:43:51;101095.00;;;13.87
34125;BMP280;20110;53.120;5.786;2022-11-25T07:48:52;101101.88;;;14.04
34125;BMP280;20110;53.120;5.786;2022-11-25T07:51:25;101102.94;;;14.08
34125;BMP280;20110;53.120;5.786;2022-11-25T07:53:56;101090.84;;;14.07
34125;BMP280;20110;53.120;5.786;2022-11-25T07:56:23;101109.59;;;14.15
34125;BMP280;20110;53.120;5.786;2022-11-25T07:58:49;101102.06;;;14.06
34125;BMP280;20110;53.120;5.786;2022-11-25T08:01:16;101120.28;;;14.15
34125;BMP280;20110;53.120;5.786;2022-11-25T08:03:46;101123.13;;;14.17
34125;BMP280;20110;53.120;5.786;2022-11-25T08:06:18;101111.75;;;14.16
34125;BMP280;20110;53.120;5.786;2022-11-25T08:08:44;101120.63;;;14.19
34125;BMP280;20110;53.120;5.786;2022-11-25T08:11:21;101117.44;;;14.20
34125;BMP280;20110;53.120;5.786;2022-11-25T08:13:47;101123.16;;;14.24
34125;BMP280;20110;53.120;5.786;2022-11-25T08:16:16;101146.53;;;14.32
34125;BMP280;20110;53.120;5.786;2022-11-25T08:18:42;101125.25;;;14.18
34125;BMP280;20110;53.120;5.786;2022-11-25T08:21:12;101140.28;;;14.29
34125;BMP280;20110;53.120;5.786;2022-11-25T08:23:40;101117.97;;;14.19
34125;BMP280;20110;53.120;5.786;2022-11-25T08:26:14;101125.63;;;14.15
34125;BMP280;20110;53.120;5.786;2022-11-25T08:28:41;101147.56;;;14.28
34125;BMP280;20110;53.120;5.786;2022-11-25T08:31:19;101142.44;;;14.31
34125;BMP280;20110;53.120;5.786;2022-11-25T08:33:46;101148.34;;;14.37
34125;BMP280;20110;53.120;5.786;2022-11-25T08:36:12;101168.31;;;14.43
34125;BMP280;20110;53.120;5.786;2022-11-25T08:38:39;101150.66;;;14.40
34125;BMP280;20110;53.120;5.786;2022-11-25T08:41:19;101162.81;;;14.49
34125;BMP280;20110;53.120;5.786;2022-11-25T08:43:45;101157.44;;;14.41
34125;BMP280;20110;53.120;5.786;2022-11-25T08:46:16;101175.34;;;14.61
34125;BMP280;20110;53.120;5.786;2022-11-25T08:48:42;101150.38;;;14.51
34125;BMP280;20110;53.120;5.786;2022-11-25T08:51:14;101170.59;;;14.75
34125;BMP280;20110;53.120;5.786;2022-11-25T08:53:42;101175.00;;;15.09
34125;BMP280;20110;53.120;5.786;2022-11-25T08:56:08;101180.22;;;15.29
34125;BMP280;20110;53.120;5.786;2022-11-25T08:58:34;101155.03;;;15.32
34125;BMP280;20110;53.120;5.786;2022-11-25T09:01:01;101152.38;;;15.32
34125;BMP280;20110;53.120;5.786;2022-11-25T09:03:31;101157.75;;;15.48
34125;BMP280;20110;53.120;5.786;2022-11-25T09:05:59;101207.00;;;15.90
34125;BMP280;20110;53.120;5.786;2022-11-25T09:08:27;101196.13;;;15.88
34125;BMP280;20110;53.120;5.786;2022-11-25T09:10:53;101189.47;;;16.04
34125;BMP280;20110;53.120;5.786;2022-11-25T09:13:18;101203.91;;;16.24
34125;BMP280;20110;53.120;5.786;2022-11-25T09:15:44;101211.03;;;16.44
34125;BMP280;20110;53.120;5.786;2022-11-25T09:18:10;101206.34;;;16.52
34125;BMP280;20110;53.120;5.786;2022-11-25T09:20:39;101210.97;;;16.60
34125;BMP280;20110;53.120;5.786;2022-11-25T09:23:07;101206.13;;;16.58
34125;BMP280;20110;53.120;5.786;2022-11-25T09:25:33;101222.13;;;16.81
34125;BMP280;20110;53.120;5.786;2022-11-25T09:27:59;101194.81;;;16.75
34125;BMP280;20110;53.120;5.786;2022-11-25T09:30:26;101200.38;;;16.69
34125;BMP280;20110;53.120;5.786;2022-11-25T09:32:54;101208.88;;;16.43
34125;BMP280;20110;53.120;5.786;2022-11-25T09:35:21;101227.81;;;16.37
34125;BMP280;20110;53.120;5.786;2022-11-25T09:37:48;101219.50;;;16.03
34125;BMP280;20110;53.120;5.786;2022-11-25T09:41:09;101245.56;;;16.02
34125;BMP280;20110;53.120;5.786;2022-11-25T09:44:00;101176.84;;;15.67
34125;BMP280;20110;53.120;5.786;2022-11-25T09:50:17;101251.66;;;16.03
34125;BMP280;20110;53.120;5.786;2022-11-25T09:53:02;101264.47;;;16.35
34125;BMP280;20110;53.120;5.786;2022-11-25T09:55:39;101254.94;;;16.57
34125;BMP280;20110;53.120;5.786;2022-11-25T09:58:37;101259.34;;;17.17
34125;BMP280;20110;53.120;5.786;2022-11-25T10:01:14;101263.72;;;17.62
34125;BMP280;20110;53.120;5.786;2022-11-25T10:03:51;101238.06;;;17.86
34125;BMP280;20110;53.120;5.786;2022-11-25T10:06:42;101264.38;;;17.87
34125;BMP280;20110;53.120;5.786;2022-11-25T10:09:14;101282.78;;;17.91
34125;BMP280;20110;53.120;5.786;2022-11-25T10:11:55;101269.56;;;17.93
34125;BMP280;20110;53.120;5.786;2022-11-25T10:15:05;101279.91;;;17.96
34125;BMP280;20110;53.120;5.786;2022-11-25T10:17:46;101272.78;;;18.08
34125;BMP280;20110;53.120;5.786;2022-11-25T10:20:29;101283.03;;;17.85
34125;BMP280;20110;53.120;5.786;2022-11-25T10:23:11;101288.97;;;17.84
34125;BMP280;20110;53.120;5.786;2022-11-25T10:25:46;101301.69;;;17.83
34125;BMP280;20110;53.120;5.786;2022-11-25T10:28:31;101307.97;;;17.53
34125;BMP280;20110;53.120;5.786;2022-11-25T10:31:13;101305.16;;;17.68
34125;BMP280;20110;53.120;5.786;2022-11-25T10:33:49;101312.34;;;17.91
34125;BMP280;20110;53.120;5.786;2022-11-25T10:36:33;101296.78;;;17.72
34125;BMP280;20110;53.120;5.786;2022-11-25T10:39:24;101316.44;;;17.50
34125;BMP280;20110;53.120;5.786;2022-11-25T10:42:20;101324.63;;;17.52
34125;BMP280;20110;53.120;5.786;2022-11-25T10:44:46;101326.31;;;17.40
34125;BMP280;20110;53.120;5.786;2022-11-25T10:47:22;101338.28;;;17.46
34125;BMP280;20110;53.120;5.786;2022-11-25T10:52:56;101329.28;;;17.51
34125;BMP280;20110;53.120;5.786;2022-11-25T10:55:32;101319.25;;;17.52
34125;BMP280;20110;53.120;5.786;2022-11-25T10:58:02;101332.09;;;17.61
34125;BMP280;20110;53.120;5.786;2022-11-25T11:00:43;101339.78;;;17.89
34125;BMP280;20110;53.120;5.786;2022-11-25T11:03:24;101345.88;;;18.15
34125;BMP280;20110;53.120;5.786;2022-11-25T11:05:55;101323.34;;;18.27
34125;BMP280;20110;53.120;5.786;2022-11-25T11:08:47;101343.38;;;18.68
34125;BMP280;20110;53.120;5.786;2022-11-25T11:11:21;101364.78;;;18.93
34125;BMP280;20110;53.120;5.786;2022-11-25T11:13:49;101359.63;;;18.87
34125;BMP280;20110;53.120;5.786;2022-11-25T11:16:28;101364.88;;;18.68
34125;BMP280;20110;53.120;5.786;2022-11-25T11:18:55;101366.53;;;18.81
34125;BMP280;20110;53.120;5.786;2022-11-25T11:21:33;101383.75;;;19.12
34125;BMP280;20110;53.120;5.786;2022-11-25T11:24:01;101384.72;;;19.07
34125;BMP280;20110;53.120;5.786;2022-11-25T11:26:34;101387.53;;;19.26
34125;BMP280;20110;53.120;5.786;2022-11-25T11:29:16;101401.94;;;19.21
34125;BMP280;20110;53.120;5.786;2022-11-25T11:32:00;101389.09;;;19.29
34125;BMP280;20110;53.120;5.786;2022-11-25T11:37:44;101400.22;;;18.99
34125;BMP280;20110;53.120;5.786;2022-11-25T11:40:40;101405.16;;;18.93
34125;BMP280;20110;53.120;5.786;2022-11-25T11:54:18;101415.25;;;20.19
34125;BMP280;20110;53.120;5.786;2022-11-25T11:56:58;101432.03;;;20.27
34125;BMP280;20110;53.120;5.786;2022-11-25T12:02:19;101422.06;;;20.20
34125;BMP280;20110;53.120;5.786;2022-11-25T12:08:05;101426.09;;;19.92
34125;BMP280;20110;53.120;5.786;2022-11-25T12:10:41;101433.84;;;20.15
34125;BMP280;20110;53.120;5.786;2022-11-25T12:16:44;101428.72;;;20.09
34125;BMP280;20110;53.120;5.786;2022-11-25T12:19:42;101451.75;;;20.30
34125;BMP280;20110;53.120;5.786;2022-11-25T12:22:31;101446.09;;;20.45
34125;BMP280;20110;53.120;5.786;2022-11-25T12:25:16;101441.28;;;20.43
34125;BMP280;20110;53.120;5.786;2022-11-25T12:28:25;101462.53;;;20.30
34125;BMP280;20110;53.120;5.786;2022-11-25T12:34:15;101436.69;;;19.54
34125;BMP280;20110;53.120;5.786;2022-11-25T12:36:44;101455.56;;;19.27
34125;BMP280;20110;53.120;5.786;2022-11-25T12:39:44;101476.38;;;19.26
34125;BMP280;20110;53.120;5.786;2022-11-25T12:42:21;101434.56;;;19.08
34125;BMP280;20110;53.120;5.786;2022-11-25T12:45:05;101475.75;;;19.36
34125;BMP280;20110;53.120;5.786;2022-11-25T12:47:32;101486.25;;;19.41
34125;BMP280;20110;53.120;5.786;2022-11-25T12:49:58;101483.34;;;19.29
34125;BMP280;20110;53.120;5.786;2022-11-25T12:52:41;101477.97;;;19.12
34125;BMP280;20110;53.120;5.786;2022-11-25T12:58:39;101511.81;;;19.23
34125;BMP280;20110;53.120;5.786;2022-11-25T13:01:44;101511.78;;;19.40
34125;BMP280;20110;53.120;5.786;2022-11-25T13:04:39;101511.69;;;19.30
34125;BMP280;20110;53.120;5.786;2022-11-25T13:07:24;101504.97;;;19.22
34125;BMP280;20110;53.120;5.786;2022-11-25T13:10:10;101510.53;;;19.24
34125;BMP280;20110;53.120;5.786;2022-11-25T13:12:45;101525.06;;;19.21
34125;BMP280;20110;53.120;5.786;2022-11-25T13:15:25;101520.03;;;18.91
34125;BMP280;20110;53.120;5.786;2022-11-25T13:18:11;101519.59;;;18.52
34125;BMP280;20110;53.120;5.786;2022-11-25T13:20:52;101535.53;;;18.58
34125;BMP280;20110;53.120;5.786;2022-11-25T13:25:46;101549.41;;;18.46
34125;BMP280;20110;53.120;5.786;2022-11-25T13:28:33;101545.56;;;18.32
34125;BMP280;20110;53.120;5.786;2022-11-25T13:31:23;101548.06;;;18.30
34125;BMP280;20110;53.120;5.786;2022-11-25T13:34:55;101551.09;;;18.34
34125;BMP280;20110;53.120;5.786;2022-11-25T13:37:35;101550.94;;;18.32
34125;BMP280;20110;53.120;5.786;2022-11-25T13:42:56;101555.41;;;18.62
34125;BMP280;20110;53.120;5.786;2022-11-25T13:45:29;101563.81;;;18.66
34125;BMP280;20110;53.120;5.786;2022-11-25T13:48:26;101574.16;;;18.95
34125;BMP280;20110;53.120;5.786;2022-11-25T13:51:21;101574.53;;;19.16
34125;BMP280;20110;53.120;5.786;2022-11-25T13:53:53;101570.88;;;19.04
34125;BMP280;20110;53.120;5.786;2022-11-25T14:05:21;101598.81;;;18.59
34125;BMP280;20110;53.120;5.786;2022-11-25T14:13:55;101614.28;;;18.50
34125;BMP280;20110;53.120;5.786;2022-11-25T14:20:03;101598.22;;;18.35
34125;BMP280;20110;53.120;5.786;2022-11-25T14:25:51;101615.47;;;18.25
34125;BMP280;20110;53.120;5.786;2022-11-25T14:30:52;101611.69;;;18.35
34125;BMP280;20110;53.120;5.786;2022-11-25T14:33:32;101628.75;;;18.30
34125;BMP280;20110;53.120;5.786;2022-11-25T14:36:12;101641.47;;;18.30
34125;BMP280;20110;53.120;5.786;2022-11-25T14:39:01;101656.66;;;18.42
34125;BMP280;20110;53.120;5.786;2022-11-25T14:41:51;101655.69;;;18.55
34125;BMP280;20110;53.120;5.786;2022-11-25T14:44:49;101647.38;;;18.36
34125;BMP280;20110;53.120;5.786;2022-11-25T14:47:22;101669.66;;;18.21
34125;BMP280;20110;53.120;5.786;2022-11-25T14:49:52;101639.13;;;17.86
34125;BMP280;20110;53.120;5.786;2022-11-25T14:52:32;101673.50;;;17.88
34125;BMP280;20110;53.120;5.786;2022-11-25T14:55:00;101671.88;;;17.92
34125;BMP280;20110;53.120;5.786;2022-11-25T14:57:32;101676.00;;;17.86
34125;BMP280;20110;53.120;5.786;2022-11-25T15:00:15;101677.84;;;17.60
34125;BMP280;20110;53.120;5.786;2022-11-25T15:03:03;101682.34;;;17.50
34125;BMP280;20110;53.120;5.786;2022-11-25T15:05:36;101669.25;;;17.16
34125;BMP280;20110;53.120;5.786;2022-11-25T15:08:15;101693.03;;;17.05
34125;BMP280;20110;53.120;5.786;2022-11-25T15:10:58;101682.41;;;16.76
34125;BMP280;20110;53.120;5.786;2022-11-25T15:13:38;101698.66;;;16.71
34125;BMP280;20110;53.120;5.786;2022-11-25T15:16:38;101700.09;;;16.64
34125;BMP280;20110;53.120;5.786;2022-11-25T15:19:17;101694.31;;;16.52
34125;BMP280;20110;53.120;5.786;2022-11-25T15:21:44;101693.88;;;16.41
34125;BMP280;20110;53.120;5.786;2022-11-25T15:24:27;101704.56;;;16.33
34125;BMP280;20110;53.120;5.786;2022-11-25T15:27:01;101699.66;;;16.16
34125;BMP280;20110;53.120;5.786;2022-11-25T15:29:29;101731.50;;;16.28
34125;BMP280;20110;53.120;5.786;2022-11-25T15:31:58;101665.69;;;15.62
34125;BMP280;20110;53.120;5.786;2022-11-25T15:34:28;101697.88;;;15.70